Time;durP1;ratioP1;P1;durP2;ratioP2;P2;SDS_P1;SDS_P2;PMS_P1;PMS_P2;Temp;Humidity;BMP_temperature;BMP_pressure;BME280_temperature;BME280_humidity;BME280_pressure;Samples;Min_cycle;Max_cycle;Signal;HPM_P1;HPM_P2
2023/03/20 00:01:18;;;;;;;53.30;24.40;;;;;;;1.71;83.18;99151.02;105294;1259;61142;-25
2023/03/20 00:03:47;;;;;;;37.10;17.90;;;;;;;2.17;83.03;99147.77;105267;1263;73798;-26
2023/03/20 00:06:21;;;;;;;35.80;18.00;;;;;;;2.80;81.90;99151.05;105287;1265;75824;-24
2023/03/20 00:08:51;;;;;;;30.60;16.10;;;;;;;2.91;81.27;99151.75;105072;1263;74209;-24
2023/03/20 00:11:29;;;;;;;33.50;17.20;;;;;;;2.74;81.36;99141.90;105189;1268;62142;-26
2023/03/20 00:14:05;;;;;;;33.20;18.70;;;;;;;2.50;81.69;99143.02;105025;1268;61204;-23
2023/03/20 00:16:35;;;;;;;28.70;17.80;;;;;;;2.25;82.29;99142.10;105051;1268;74591;-24
2023/03/20 00:19:07;;;;;;;27.40;15.80;;;;;;;2.05;82.63;99142.84;104930;1268;75716;-23
2023/03/20 00:21:35;;;;;;;21.80;10.90;;;;;;;1.91;82.95;99146.35;105214;1263;74192;-24
2023/03/20 00:24:05;;;;;;;21.80;10.60;;;;;;;2.43;83.50;99144.89;105238;1263;61119;-23
2023/03/20 00:26:34;;;;;;;29.50;16.70;;;;;;;3.06;82.99;99142.60;105036;1267;61958;-23
2023/03/20 00:29:04;;;;;;;31.10;17.40;;;;;;;3.19;82.24;99137.21;105106;1263;74641;-23
2023/03/20 00:31:37;;;;;;;26.50;14.80;;;;;;;3.04;81.97;99132.23;104971;1263;75747;-23
2023/03/20 00:34:11;;;;;;;26.00;15.20;;;;;;;2.80;81.94;99131.66;105100;1262;74207;-23
2023/03/20 00:36:39;;;;;;;30.90;17.90;;;;;;;2.55;82.13;99127.39;105116;1263;61175;-23
2023/03/20 00:39:14;;;;;;;34.90;18.60;;;;;;;2.29;82.43;99127.36;105120;1263;61564;-23
2023/03/20 00:42:06;;;;;;;21.80;11.10;;;;;;;2.10;82.94;99128.92;105140;1263;74542;-23
2023/03/20 00:44:36;;;;;;;24.20;13.00;;;;;;;2.66;83.16;99126.53;105064;1263;75543;-23
2023/03/20 00:47:16;;;;;;;26.10;14.20;;;;;;;3.20;82.02;99127.16;104911;1263;73850;-23
2023/03/20 00:49:46;;;;;;;28.80;14.60;;;;;;;3.20;81.16;99127.17;104888;1266;61721;-23
2023/03/20 00:52:17;;;;;;;25.50;15.40;;;;;;;2.99;81.24;99123.91;104922;1263;61103;-23
2023/03/20 00:54:46;;;;;;;23.10;15.10;;;;;;;2.70;81.51;99119.99;105261;1256;74517;-24
2023/03/20 00:57:34;;;;;;;28.90;16.90;;;;;;;2.42;82.01;99117.50;105419;1257;75661;-23
2023/03/20 01:00:07;;;;;;;28.30;15.90;;;;;;;2.15;82.37;99118.41;105323;1265;72205;-23
2023/03/20 01:02:36;;;;;;;23.30;13.00;;;;;;;1.96;82.94;99114.98;105353;1262;62059;-24
2023/03/20 01:05:05;;;;;;;24.00;12.20;;;;;;;2.43;83.29;99113.21;105357;1262;61709;-23
2023/03/20 01:07:34;;;;;;;28.80;16.70;;;;;;;3.01;82.14;99111.80;105565;1262;74293;-24
2023/03/20 01:10:05;;;;;;;23.50;13.20;;;;;;;3.07;81.49;99117.18;105145;1257;75843;-23
2023/03/20 01:12:34;;;;;;;26.10;16.00;;;;;;;2.86;81.39;99115.77;105221;1262;72112;-23
2023/03/20 01:15:06;;;;;;;29.60;16.40;;;;;;;2.59;81.57;99114.19;105621;1259;61099;-23
2023/03/20 01:17:34;;;;;;;28.70;18.70;;;;;;;2.27;81.96;99108.79;105333;1256;61579;-24
2023/03/20 01:20:13;;;;;;;29.60;18.00;;;;;;;1.97;82.29;99107.89;105636;1256;73747;-24
2023/03/20 01:22:41;;;;;;;21.10;11.40;;;;;;;1.75;83.05;99110.45;105312;1257;76011;-24
2023/03/20 01:25:10;;;;;;;24.00;12.70;;;;;;;2.18;83.17;99109.71;105239;1256;72991;-24
2023/03/20 01:27:39;;;;;;;27.60;15.90;;;;;;;2.73;82.17;99108.71;105498;1258;62012;-24
2023/03/20 01:30:22;;;;;;;21.80;13.30;;;;;;;2.76;81.59;99108.38;105501;1262;61736;-23
2023/03/20 01:32:52;;;;;;;23.20;13.10;;;;;;;2.54;81.70;99104.11;105352;1263;74470;-23
2023/03/20 01:35:26;;;;;;;23.90;15.00;;;;;;;2.25;82.12;99100.15;105382;1256;74928;-23
2023/03/20 01:37:55;;;;;;;25.80;15.80;;;;;;;1.98;82.63;99102.59;105278;1257;74168;-23
2023/03/20 01:40:31;;;;;;;24.60;15.60;;;;;;;1.72;83.07;99101.83;105404;1263;61153;-23
2023/03/20 01:43:02;;;;;;;18.50;9.30;;;;;;;1.50;83.56;99100.05;105342;1265;61763;-24
2023/03/20 01:45:33;;;;;;;35.70;17.80;;;;;;;1.96;83.99;99101.47;105369;1263;74349;-24
2023/03/20 01:48:16;;;;;;;31.30;18.50;;;;;;;2.56;83.21;99100.41;105113;1263;74676;-23
2023/03/20 01:50:47;;;;;;;30.90;18.10;;;;;;;2.63;82.38;99101.45;105061;1263;73903;-24
2023/03/20 01:53:27;;;;;;;24.00;14.50;;;;;;;2.46;82.38;99102.77;105547;1261;61733;-24
2023/03/20 01:56:00;;;;;;;28.10;18.00;;;;;;;2.19;82.72;99105.04;105374;1266;61833;-24
2023/03/20 01:58:42;;;;;;;30.30;18.40;;;;;;;1.93;83.46;99105.54;105349;1265;74168;-23
2023/03/20 02:01:12;;;;;;;27.80;16.10;;;;;;;1.71;83.85;99101.52;105282;1265;74979;-24
2023/03/20 02:03:45;;;;;;;17.00;9.60;;;;;;;1.55;84.14;99103.73;105209;1256;73894;-24
2023/03/20 02:06:16;;;;;;;23.60;11.10;;;;;;;2.09;84.33;99101.37;105141;1258;61070;-23
2023/03/20 02:09:15;;;;;;;26.30;14.40;;;;;;;2.82;83.20;99102.63;105183;1259;61541;-23
2023/03/20 02:11:46;;;;;;;26.10;14.00;;;;;;;2.89;82.62;99098.71;105500;1262;72951;-23
2023/03/20 02:14:15;;;;;;;26.60;14.80;;;;;;;2.74;82.40;99096.80;105381;1266;75806;-23
2023/03/20 02:17:04;;;;;;;26.40;15.90;;;;;;;2.51;82.45;99095.86;105556;1262;74095;-23
2023/03/20 02:20:00;;;;;;;27.10;15.90;;;;;;;2.27;82.67;99091.64;105087;1256;61277;-23
2023/03/20 02:22:57;;;;;;;18.60;10.80;;;;;;;2.10;83.12;99095.70;105278;1257;61666;-23
2023/03/20 02:25:27;;;;;;;29.30;15.70;;;;;;;2.83;83.03;99101.38;105413;1258;74249;-23
2023/03/20 02:28:32;;;;;;;28.00;15.50;;;;;;;3.35;81.70;99105.33;105288;1264;75976;-23
2023/03/20 02:31:55;;;;;;;21.60;12.40;;;;;;;3.37;81.01;99105.38;105170;1262;74175;-23
2023/03/20 02:34:47;;;;;;;24.70;14.00;;;;;;;3.06;80.92;99100.95;105093;1265;61246;-23
2023/03/20 02:37:49;;;;;;;27.40;15.40;;;;;;;2.74;81.36;99098.73;105811;1259;61827;-23
2023/03/20 02:40:27;;;;;;;25.70;14.70;;;;;;;2.42;81.57;99095.45;105707;1255;74381;-23
2023/03/20 02:43:38;;;;;;;22.70;14.90;;;;;;;2.15;82.04;99093.41;105697;1259;75884;-24
2023/03/20 02:46:15;;;;;;;14.10;8.60;;;;;;;1.97;82.57;99093.16;105414;1256;74271;-23
2023/03/20 02:49:13;;;;;;;23.00;12.70;;;;;;;2.72;82.13;99091.09;105463;1257;61685;-23
2023/03/20 02:52:10;;;;;;;27.10;16.00;;;;;;;3.27;80.12;99091.50;105698;1258;61595;-23
2023/03/20 02:54:42;;;;;;;22.40;13.50;;;;;;;3.17;79.32;99089.23;105687;1259;73514;-23
2023/03/20 02:57:26;;;;;;;20.80;13.70;;;;;;;2.88;79.76;99086.86;105531;1259;75836;-25
2023/03/20 03:00:03;;;;;;;25.80;15.20;;;;;;;2.60;80.34;99080.53;105252;1253;73537;-23
2023/03/20 03:02:46;;;;;;;31.10;17.40;;;;;;;2.29;80.52;99078.21;105579;1255;61567;-23
2023/03/20 03:05:24;;;;;;;25.00;16.00;;;;;;;2.00;81.28;99076.13;105432;1259;62007;-23
2023/03/20 03:07:54;;;;;;;18.60;10.80;;;;;;;1.81;81.87;99073.17;105670;1258;73517;-22
2023/03/20 03:10:26;;;;;;;25.90;13.70;;;;;;;2.28;81.96;99072.11;105630;1261;75586;-23
2023/03/20 03:12:56;;;;;;;25.60;14.80;;;;;;;2.88;81.04;99073.70;105329;1257;73219;-22
2023/03/20 03:15:26;;;;;;;25.00;14.40;;;;;;;2.95;80.44;99066.45;105501;1255;61924;-22
2023/03/20 03:17:57;;;;;;;24.00;14.50;;;;;;;2.77;80.35;99062.20;105540;1257;61150;-23
2023/03/20 03:20:31;;;;;;;27.70;15.40;;;;;;;2.52;80.78;99054.50;105308;1260;74570;-23
2023/03/20 03:23:00;;;;;;;34.50;18.20;;;;;;;2.30;81.37;99054.70;105338;1260;75070;-23
2023/03/20 03:25:39;;;;;;;32.40;18.90;;;;;;;2.14;81.79;99053.88;105671;1254;73972;-23
2023/03/20 03:28:12;;;;;;;23.50;11.20;;;;;;;2.03;82.51;99053.86;105252;1260;62748;-22
2023/03/20 03:30:44;;;;;;;34.00;16.20;;;;;;;2.62;82.77;99054.00;105442;1254;61055;-22
2023/03/20 03:33:20;;;;;;;32.10;17.10;;;;;;;3.30;81.34;99061.31;105404;1253;74597;-23
2023/03/20 03:36:13;;;;;;;36.00;17.70;;;;;;;3.44;80.34;99059.77;105298;1260;75615;-23
2023/03/20 03:38:51;;;;;;;30.20;17.70;;;;;;;3.29;80.12;99056.71;105365;1258;74255;-22
2023/03/20 03:41:25;;;;;;;32.90;19.30;;;;;;;3.07;80.34;99050.48;105375;1253;61168;-23
2023/03/20 03:44:04;;;;;;;35.60;20.70;;;;;;;2.84;80.54;99048.87;105520;1260;61533;-23
2023/03/20 03:46:50;;;;;;;34.70;20.00;;;;;;;2.61;81.07;99048.27;105400;1254;74723;-23
2023/03/20 03:49:28;;;;;;;22.90;12.40;;;;;;;2.46;81.47;99047.27;105435;1259;75506;-23
2023/03/20 03:51:59;;;;;;;29.70;16.00;;;;;;;3.06;81.48;99048.09;105620;1258;73992;-23
2023/03/20 03:55:02;;;;;;;32.30;18.50;;;;;;;3.65;80.33;99047.80;105554;1254;61113;-23
2023/03/20 03:57:34;;;;;;;25.70;15.50;;;;;;;3.71;79.69;99048.05;105478;1261;62263;-23
2023/03/20 04:00:05;;;;;;;31.50;18.40;;;;;;;3.52;79.63;99047.66;105541;1254;74785;-23
2023/03/20 04:02:41;;;;;;;33.90;18.50;;;;;;;3.29;80.08;99055.17;105357;1260;75866;-23
2023/03/20 04:05:15;;;;;;;30.80;18.00;;;;;;;3.06;80.45;99054.09;105152;1262;73830;-22
2023/03/20 04:07:46;;;;;;;32.20;17.70;;;;;;;2.87;81.21;99054.72;105398;1259;61203;-22
2023/03/20 04:10:15;;;;;;;23.30;10.60;;;;;;;2.70;81.71;99051.06;105481;1257;62212;-23
2023/03/20 04:12:48;;;;;;;28.70;12.70;;;;;;;3.20;81.84;99049.48;105414;1259;75340;-23
2023/03/20 04:15:17;;;;;;;30.70;15.10;;;;;;;3.77;80.56;99046.50;105598;1258;75637;-23
2023/03/20 04:17:45;;;;;;;27.70;14.20;;;;;;;3.86;79.72;99044.17;105638;1256;73135;-23
2023/03/20 04:20:16;;;;;;;28.00;14.60;;;;;;;3.67;79.40;99043.80;105848;1266;61215;-23
2023/03/20 04:22:46;;;;;;;29.10;16.20;;;;;;;3.39;79.31;99045.23;105673;1257;61944;-23
2023/03/20 04:25:23;;;;;;;29.40;17.00;;;;;;;3.12;79.60;99046.63;105651;1254;75089;-23
2023/03/20 04:27:54;;;;;;;29.50;16.50;;;;;;;2.84;80.09;99040.30;105318;1255;75621;-23
2023/03/20 04:30:31;;;;;;;31.80;17.30;;;;;;;2.57;80.62;99039.20;105482;1259;74232;-23
2023/03/20 04:33:09;;;;;;;17.30;10.00;;;;;;;2.37;81.30;99043.73;105533;1255;62999;-22
2023/03/20 04:35:48;;;;;;;21.00;10.10;;;;;;;2.95;81.28;99046.77;105540;1257;61837;-23
2023/03/20 04:38:19;;;;;;;26.30;14.40;;;;;;;3.50;79.83;99042.12;105732;1254;75013;-22
2023/03/20 04:40:48;;;;;;;26.20;14.00;;;;;;;3.52;79.30;99042.36;105408;1258;75804;-23
2023/03/20 04:43:17;;;;;;;27.00;14.30;;;;;;;3.30;79.42;99044.15;105499;1255;74213;-22
2023/03/20 04:45:46;;;;;;;29.30;15.60;;;;;;;3.04;79.70;99041.88;105516;1259;61708;-23
2023/03/20 04:48:15;;;;;;;31.70;17.20;;;;;;;2.75;80.19;99040.20;105549;1259;61657;-23
2023/03/20 04:50:47;;;;;;;29.90;17.00;;;;;;;2.51;80.47;99040.70;105511;1258;75029;-23
2023/03/20 04:53:17;;;;;;;26.10;12.50;;;;;;;2.30;81.00;99035.68;105687;1257;75774;-23
2023/03/20 04:55:54;;;;;;;31.00;15.50;;;;;;;2.74;81.63;99038.36;105526;1257;74391;-25
2023/03/20 04:58:25;;;;;;;26.20;12.90;;;;;;;3.31;80.71;99042.89;105528;1264;61703;-22
2023/03/20 05:00:53;;;;;;;27.60;15.40;;;;;;;3.41;79.99;99048.05;105561;1260;61910;-23
2023/03/20 05:03:22;;;;;;;28.80;15.60;;;;;;;3.21;79.84;99044.96;105576;1259;75377;-23
2023/03/20 05:05:52;;;;;;;24.60;14.20;;;;;;;2.95;80.25;99044.72;105701;1257;76112;-23
2023/03/20 05:08:21;;;;;;;34.10;18.50;;;;;;;2.71;81.13;99047.10;105693;1255;74034;-23
2023/03/20 05:10:54;;;;;;;33.80;18.30;;;;;;;2.49;81.90;99047.45;105521;1258;61189;-23
2023/03/20 05:13:55;;;;;;;23.20;12.80;;;;;;;2.39;82.88;99052.38;105627;1254;61587;-24
2023/03/20 05:16:56;;;;;;;27.40;13.70;;;;;;;3.26;82.70;99058.77;105529;1255;75118;-25
2023/03/20 05:19:45;;;;;;;33.30;15.90;;;;;;;3.74;81.05;99064.54;105471;1260;74720;-24
2023/03/20 05:22:22;;;;;;;30.40;15.40;;;;;;;3.68;80.57;99058.13;105542;1261;74202;-25
2023/03/20 05:25:14;;;;;;;34.30;17.00;;;;;;;3.44;80.52;99057.70;105807;1257;61696;-25
2023/03/20 05:27:48;;;;;;;29.80;14.80;;;;;;;3.14;80.59;99058.66;105562;1257;61812;-24
2023/03/20 05:30:37;;;;;;;37.40;18.20;;;;;;;2.84;81.10;99055.72;105298;1254;75215;-24
2023/03/20 05:33:30;;;;;;;32.00;15.90;;;;;;;2.61;82.00;99054.58;105572;1258;75678;-23
2023/03/20 05:36:26;;;;;;;32.70;16.80;;;;;;;3.19;82.29;99056.19;105797;1254;74173;-24
2023/03/20 05:39:15;;;;;;;36.80;18.80;;;;;;;3.57;81.24;99057.55;105511;1254;61881;-24
2023/03/20 05:42:07;;;;;;;38.10;19.90;;;;;;;3.43;80.96;99063.05;105353;1253;61142;-24
2023/03/20 05:44:59;;;;;;;32.30;16.50;;;;;;;3.19;81.87;99063.92;105709;1254;75261;-24
2023/03/20 05:47:49;;;;;;;48.60;21.90;;;;;;;2.97;82.66;99058.67;105776;1254;75703;-24
2023/03/20 05:50:49;;;;;;;31.10;15.40;;;;;;;2.89;83.54;99060.93;105881;1256;74318;-24
2023/03/20 05:53:36;;;;;;;29.00;14.10;;;;;;;3.59;83.07;99064.83;105780;1252;61946;-24
2023/03/20 05:56:24;;;;;;;35.20;17.50;;;;;;;4.01;81.18;99064.44;105502;1257;61884;-24
2023/03/20 05:59:12;;;;;;;35.50;16.40;;;;;;;3.95;80.66;99061.57;105491;1254;75397;-24
2023/03/20 06:02:04;;;;;;;42.80;19.40;;;;;;;3.72;81.05;99060.70;105332;1257;75804;-24
2023/03/20 06:04:38;;;;;;;43.90;21.60;;;;;;;3.53;81.58;99065.65;105471;1254;74228;-24
2023/03/20 06:07:33;;;;;;;37.40;17.80;;;;;;;3.39;82.61;99070.97;105481;1252;62624;-24
2023/03/20 06:10:10;;;;;;;37.70;18.20;;;;;;;3.97;82.25;99070.88;105511;1257;61759;-23
2023/03/20 06:12:38;;;;;;;40.20;19.20;;;;;;;4.36;80.71;99071.17;105460;1254;75322;-24
2023/03/20 06:15:07;;;;;;;34.40;18.50;;;;;;;4.35;80.25;99072.42;105563;1254;75846;-24
2023/03/20 06:17:41;;;;;;;32.50;15.70;;;;;;;4.25;80.39;99071.07;105431;1260;73775;-25
2023/03/20 06:20:13;;;;;;;34.90;16.70;;;;;;;4.04;80.77;99070.86;105398;1257;61258;-23
2023/03/20 06:22:42;;;;;;;30.10;14.90;;;;;;;3.82;81.27;99069.43;105570;1257;61802;-23
2023/03/20 06:25:14;;;;;;;40.20;19.70;;;;;;;3.96;81.73;99070.93;105559;1254;75545;-23
2023/03/20 06:27:47;;;;;;;39.10;20.40;;;;;;;4.38;81.08;99075.52;105456;1258;75839;-23
2023/03/20 06:30:21;;;;;;;33.30;15.20;;;;;;;4.51;80.08;99070.01;105533;1258;73950;-23
2023/03/20 06:32:51;;;;;;;31.90;17.20;;;;;;;4.55;80.30;99065.13;105663;1255;61222;-23
2023/03/20 06:35:21;;;;;;;39.10;18.40;;;;;;;4.53;80.29;99062.17;105549;1255;61605;-24
2023/03/20 06:37:52;;;;;;;31.10;13.20;;;;;;;4.31;79.89;99057.19;105562;1254;75282;-24
2023/03/20 06:40:23;;;;;;;25.40;11.80;;;;;;;4.30;80.89;99056.38;105583;1256;75645;-25
2023/03/20 06:42:56;;;;;;;33.30;16.50;;;;;;;4.82;78.74;99057.23;105431;1258;74220;-24
2023/03/20 06:45:30;;;;;;;24.50;10.80;;;;;;;5.03;78.27;99055.69;105570;1255;61888;-24
2023/03/20 06:48:04;;;;;;;24.30;12.80;;;;;;;4.88;77.55;99055.91;105683;1258;61748;-25
2023/03/20 06:50:34;;;;;;;24.50;12.30;;;;;;;4.70;77.87;99057.63;105287;1260;73316;-29
2023/03/20 06:53:03;;;;;;;19.70;11.90;;;;;;;4.55;78.56;99057.73;105482;1254;75752;-27
2023/03/20 06:55:47;;;;;;;;;;;;;;;4.49;79.69;99058.93;105576;1258;74096;-24
2023/03/20 06:58:16;;;;;;;18.00;9.70;;;;;;;4.57;79.45;99055.73;105505;1259;61124;-25
2023/03/20 07:00:45;;;;;;;26.10;13.10;;;;;;;4.90;77.35;99056.12;105607;1252;61631;-23
2023/03/20 07:03:15;;;;;;;31.00;16.00;;;;;;;4.81;77.23;99053.34;105468;1254;75269;-23
2023/03/20 07:05:45;;;;;;;28.40;15.20;;;;;;;5.02;78.29;99054.06;105592;1257;74913;-25
2023/03/20 07:08:14;;;;;;;35.30;16.80;;;;;;;5.19;77.43;99057.75;105566;1257;73030;-23
2023/03/20 07:10:43;;;;;;;24.20;13.60;;;;;;;5.31;76.83;99059.40;105560;1254;61912;-23
2023/03/20 07:13:13;;;;;;;26.10;10.40;;;;;;;5.39;76.62;99060.13;105619;1259;61591;-23
2023/03/20 07:15:42;;;;;;;19.60;12.50;;;;;;;5.58;75.98;99060.39;105589;1257;74377;-23
2023/03/20 07:18:32;;;;;;;18.70;11.10;;;;;;;6.13;72.73;99060.20;105540;1259;76376;-24
2023/03/20 07:21:08;;;;;;;18.50;9.70;;;;;;;6.23;72.15;99063.52;105619;1254;74278;-24
2023/03/20 07:23:37;;;;;;;25.70;11.40;;;;;;;6.25;72.13;99064.09;105485;1261;61123;-23
2023/03/20 07:26:05;;;;;;;13.60;7.30;;;;;;;6.22;71.82;99061.49;105552;1258;61819;-24
2023/03/20 07:28:37;;;;;;;21.70;9.50;;;;;;;5.91;71.56;99067.18;105604;1258;74344;-25
2023/03/20 07:31:25;;;;;;;15.50;8.40;;;;;;;5.82;71.58;99063.60;105562;1258;75728;-25
2023/03/20 07:34:04;;;;;;;17.10;8.40;;;;;;;5.66;71.59;99061.96;105312;1254;74231;-26
2023/03/20 07:36:34;;;;;;;21.40;10.50;;;;;;;5.64;72.03;99058.67;105586;1257;61120;-29
2023/03/20 07:39:03;;;;;;;15.20;8.10;;;;;;;5.60;71.32;99051.83;105518;1258;61747;-26
2023/03/20 07:41:33;;;;;;;11.90;6.50;;;;;;;5.52;71.74;99052.67;105611;1254;75630;-24
2023/03/20 07:44:06;;;;;;;13.10;7.40;;;;;;;5.42;72.15;99050.15;105397;1254;74774;-28
2023/03/20 07:46:49;;;;;;;15.10;8.70;;;;;;;5.40;72.01;99048.02;105794;1254;73096;-25
2023/03/20 07:49:18;;;;;;;19.20;9.60;;;;;;;5.38;72.31;99053.31;105613;1254;61167;-25
2023/03/20 07:51:47;;;;;;;23.20;10.40;;;;;;;5.51;71.66;99049.66;105702;1258;61827;-28
2023/03/20 07:54:17;;;;;;;16.40;8.70;;;;;;;5.37;72.03;99046.86;105511;1260;74372;-30
2023/03/20 07:56:45;;;;;;;14.30;7.70;;;;;;;5.38;71.78;99043.14;105761;1254;75827;-26
2023/03/20 07:59:14;;;;;;;14.30;7.60;;;;;;;5.47;71.36;99031.41;105914;1253;74163;-24
2023/03/20 08:01:44;;;;;;;18.10;8.90;;;;;;;5.51;70.97;99038.95;105598;1260;61173;-24
2023/03/20 08:04:13;;;;;;;19.90;8.10;;;;;;;5.67;71.33;99036.98;105705;1254;61161;-25
2023/03/20 08:06:44;;;;;;;16.60;9.50;;;;;;;5.81;71.07;99038.15;105849;1255;74138;-24
2023/03/20 08:09:13;;;;;;;10.60;6.30;;;;;;;5.95;70.66;99040.72;105627;1254;74643;-24
2023/03/20 08:11:42;;;;;;;15.70;8.70;;;;;;;6.11;70.14;99033.42;105522;1258;73114;-24
2023/03/20 08:14:11;;;;;;;13.80;8.10;;;;;;;6.25;69.66;99040.46;105817;1257;61201;-24
2023/03/20 08:16:39;;;;;;;13.00;6.90;;;;;;;6.38;69.17;99041.19;105590;1257;61894;-23
2023/03/20 08:19:08;;;;;;;16.40;8.20;;;;;;;6.36;68.67;99040.96;105645;1254;75428;-24
2023/03/20 08:21:39;;;;;;;16.40;8.40;;;;;;;6.41;68.20;99043.58;105584;1254;75837;-23
2023/03/20 08:24:08;;;;;;;12.10;7.10;;;;;;;6.41;68.45;99046.68;105497;1257;74168;-23
2023/03/20 08:26:37;;;;;;;11.60;6.30;;;;;;;6.53;68.54;99048.90;105239;1257;62040;-23
2023/03/20 08:29:06;;;;;;;12.90;6.80;;;;;;;6.66;67.58;99046.95;105678;1256;61306;-24
2023/03/20 08:31:36;;;;;;;12.10;6.00;;;;;;;6.59;67.22;99048.98;105597;1254;75157;-24
2023/03/20 08:34:05;;;;;;;12.00;7.20;;;;;;;6.80;67.01;99046.27;105631;1253;75840;-25
2023/03/20 08:36:34;;;;;;;12.70;7.80;;;;;;;6.91;66.69;99050.19;105591;1253;73966;-23
2023/03/20 08:39:02;;;;;;;17.50;10.00;;;;;;;7.01;65.90;99039.89;105470;1254;61356;-24
2023/03/20 08:41:32;;;;;;;15.20;8.50;;;;;;;7.13;66.22;99042.89;105587;1254;61904;-24
2023/03/20 08:44:01;;;;;;;49.30;10.70;;;;;;;7.06;65.70;99044.70;105310;1258;75714;-24
2023/03/20 08:46:30;;;;;;;14.30;7.70;;;;;;;6.96;66.60;99039.01;105614;1254;75885;-23
2023/03/20 08:48:59;;;;;;;19.90;8.90;;;;;;;7.20;65.95;99037.21;105531;1253;73290;-23
2023/03/20 08:51:28;;;;;;;16.60;9.70;;;;;;;7.51;64.89;99038.11;105525;1257;61693;-23
2023/03/20 08:53:56;;;;;;;15.50;8.30;;;;;;;7.74;64.08;99036.84;105579;1259;61569;-24
2023/03/20 08:56:25;;;;;;;15.20;8.50;;;;;;;7.73;63.51;99034.70;105619;1253;75357;-23
2023/03/20 08:58:54;;;;;;;14.40;7.80;;;;;;;7.72;63.53;99042.01;105564;1254;74483;-23
2023/03/20 09:01:23;;;;;;;14.50;8.40;;;;;;;7.80;63.47;99035.18;105526;1257;73919;-23
2023/03/20 09:04:00;;;;;;;16.10;8.60;;;;;;;7.90;63.22;99032.28;105663;1254;61942;-23
2023/03/20 09:06:31;;;;;;;17.10;9.10;;;;;;;7.91;62.91;99033.23;105523;1254;61147;-23
2023/03/20 09:09:00;;;;;;;12.20;7.80;;;;;;;7.77;63.68;99035.38;105537;1254;74296;-23
2023/03/20 09:11:34;;;;;;;15.90;9.50;;;;;;;8.05;62.73;99029.67;105398;1257;75862;-23
2023/03/20 09:14:02;;;;;;;16.40;9.50;;;;;;;8.12;63.15;99030.88;105590;1255;74217;-23
2023/03/20 09:16:31;;;;;;;7.80;5.40;;;;;;;8.49;62.18;99035.22;105570;1254;61962;-23
2023/03/20 09:19:00;;;;;;;16.80;10.30;;;;;;;8.65;61.13;99035.58;105532;1253;61829;-23
2023/03/20 09:21:29;;;;;;;16.20;9.60;;;;;;;8.82;61.54;99034.90;105733;1253;75350;-23
2023/03/20 09:23:58;;;;;;;9.30;5.40;;;;;;;8.91;60.90;99034.92;105483;1258;75781;-23
2023/03/20 09:26:27;;;;;;;18.40;9.40;;;;;;;8.88;60.64;99033.06;105817;1254;74307;-23
2023/03/20 09:28:55;;;;;;;18.90;10.70;;;;;;;8.80;60.65;99028.45;105565;1258;61707;-23
2023/03/20 09:31:24;;;;;;;23.10;9.80;;;;;;;9.03;60.18;99024.84;105493;1253;61097;-23
2023/03/20 09:33:53;;;;;;;14.90;9.90;;;;;;;9.00;59.76;99016.74;105546;1254;75372;-23
2023/03/20 09:36:21;;;;;;;9.80;6.50;;;;;;;9.36;59.64;99014.55;105539;1257;74412;-23
2023/03/20 09:38:50;;;;;;;19.00;10.30;;;;;;;9.34;58.40;99019.70;105489;1253;74126;-23
2023/03/20 09:41:21;;;;;;;16.00;10.20;;;;;;;9.16;58.58;99022.47;105572;1253;61887;-23
2023/03/20 09:44:18;;;;;;;14.30;7.80;;;;;;;8.93;59.89;99025.54;105461;1255;61587;-23
2023/03/20 09:46:50;;;;;;;10.60;7.00;;;;;;;8.93;59.84;99021.24;105598;1253;75110;-24
2023/03/20 09:49:48;;;;;;;13.30;7.60;;;;;;;8.77;59.96;99017.23;105773;1258;74546;-34
2023/03/20 09:52:26;;;;;;;15.60;10.10;;;;;;;8.61;60.12;99017.67;105866;1253;73630;-23
2023/03/20 09:55:16;;;;;;;13.60;8.00;;;;;;;8.78;60.38;99009.08;105602;1259;61845;-23
2023/03/20 09:57:50;;;;;;;17.80;9.20;;;;;;;8.70;60.24;99012.39;105704;1253;61052;-23
2023/03/20 10:00:19;;;;;;;15.90;9.00;;;;;;;8.76;60.65;99017.13;105631;1254;74793;-25
2023/03/20 10:02:51;;;;;;;18.80;10.10;;;;;;;8.77;60.17;99012.20;105563;1254;75997;-24
2023/03/20 10:05:22;;;;;;;16.20;8.80;;;;;;;9.28;59.98;98999.17;105510;1258;74033;-24
2023/03/20 10:07:54;;;;;;;16.80;10.60;;;;;;;9.48;58.36;98998.88;105676;1253;61901;-23
2023/03/20 10:10:33;;;;;;;23.30;11.40;;;;;;;9.46;58.45;98997.33;105615;1254;61174;-23
2023/03/20 10:13:43;;;;;;;18.10;9.90;;;;;;;9.76;58.43;99002.11;105643;1253;75313;-23
2023/03/20 10:16:34;;;;;;;14.20;7.60;;;;;;;9.82;57.30;98999.77;105575;1254;75280;-23
2023/03/20 10:19:25;;;;;;;16.40;9.40;;;;;;;9.34;58.03;98989.95;105666;1256;74527;-23
2023/03/20 10:22:04;;;;;;;13.70;6.90;;;;;;;9.29;58.84;98990.62;105645;1254;61850;-23
2023/03/20 10:24:53;;;;;;;16.20;9.60;;;;;;;9.47;58.90;98987.71;105682;1254;61064;-24
2023/03/20 10:27:23;;;;;;;18.60;10.30;;;;;;;9.84;58.56;98977.91;105640;1258;74417;-23
2023/03/20 10:30:11;;;;;;;13.80;8.10;;;;;;;9.79;57.90;98978.29;105592;1253;75865;-24
2023/03/20 10:33:01;;;;;;;17.10;10.50;;;;;;;9.85;58.09;98976.80;105482;1253;74269;-24
2023/03/20 10:35:42;;;;;;;16.20;9.10;;;;;;;10.25;56.29;98972.54;105430;1254;61179;-23
2023/03/20 10:38:25;;;;;;;13.50;7.00;;;;;;;10.43;56.57;98971.65;105638;1257;61604;-24
2023/03/20 10:40:56;;;;;;;17.70;9.30;;;;;;;10.81;55.50;98973.04;105475;1253;75651;-24
2023/03/20 10:43:28;;;;;;;11.40;6.70;;;;;;;10.61;54.94;98968.77;105584;1253;76171;-25
2023/03/20 10:46:00;;;;;;;13.00;8.20;;;;;;;10.11;55.63;98966.56;105516;1253;74605;-24
2023/03/20 10:48:44;;;;;;;13.30;9.10;;;;;;;10.27;56.03;98963.90;105477;1258;61707;-25
2023/03/20 10:51:21;;;;;;;13.70;7.10;;;;;;;10.27;55.86;98958.34;105441;1252;61908;-24
2023/03/20 10:53:55;;;;;;;9.40;5.50;;;;;;;9.88;55.78;98948.27;105360;1253;75653;-24
2023/03/20 10:56:35;;;;;;;14.50;9.30;;;;;;;9.71;57.69;98948.58;105540;1253;76164;-25
2023/03/20 10:59:16;;;;;;;14.80;7.70;;;;;;;10.23;57.06;98951.36;105507;1260;73503;-25
2023/03/20 11:01:44;;;;;;;14.40;8.60;;;;;;;10.80;55.80;98948.13;105875;1253;62374;-25
2023/03/20 11:04:13;;;;;;;21.00;9.30;;;;;;;10.67;54.47;98943.81;105819;1253;61126;-25
2023/03/20 11:06:56;;;;;;;14.50;8.10;;;;;;;10.43;55.44;98945.99;105636;1253;74376;-25
2023/03/20 11:09:28;;;;;;;14.80;8.60;;;;;;;10.41;55.68;98939.89;105903;1257;75668;-24
2023/03/20 11:11:58;;;;;;;12.90;7.30;;;;;;;10.90;54.87;98938.96;105899;1254;74174;-23
2023/03/20 11:14:36;;;;;;;10.80;7.00;;;;;;;11.18;53.31;98933.70;105642;1258;61113;-23
2023/03/20 11:17:05;;;;;;;15.80;8.80;;;;;;;10.97;53.23;98934.62;105687;1255;61269;-23
2023/03/20 11:19:36;;;;;;;17.00;9.60;;;;;;;11.18;53.50;98923.80;105725;1254;74588;-25
2023/03/20 11:22:30;;;;;;;11.80;8.30;;;;;;;11.48;52.82;98920.61;105594;1258;76234;-24
2023/03/20 11:25:01;;;;;;;15.90;9.30;;;;;;;11.76;52.12;98913.52;105489;1253;74424;-24
2023/03/20 11:27:31;;;;;;;13.60;8.40;;;;;;;11.98;52.07;98916.09;105630;1260;61222;-24
2023/03/20 11:30:04;;;;;;;17.00;9.90;;;;;;;11.83;50.85;98912.27;105552;1260;61534;-24
2023/03/20 11:32:35;;;;;;;13.50;8.00;;;;;;;11.68;51.99;98907.27;105620;1253;74718;-24
2023/03/20 11:35:25;;;;;;;14.60;9.30;;;;;;;11.84;51.75;98903.09;105640;1253;76074;-24
2023/03/20 11:37:55;;;;;;;13.50;8.20;;;;;;;12.09;51.10;98893.09;105626;1253;74178;-24
2023/03/20 11:40:25;;;;;;;13.40;8.30;;;;;;;11.84;50.80;98900.48;105616;1253;61787;-24
2023/03/20 11:43:22;;;;;;;12.60;7.60;;;;;;;11.95;51.45;98892.73;105246;1253;61855;-24
2023/03/20 11:45:59;;;;;;;11.60;6.20;;;;;;;12.01;51.27;98887.02;105415;1253;74304;-24
2023/03/20 11:48:39;;;;;;;14.50;8.30;;;;;;;12.13;50.70;98893.58;105253;1260;75331;-24
2023/03/20 11:51:10;;;;;;;10.80;7.40;;;;;;;12.20;50.43;98891.40;105171;1261;73947;-24
2023/03/20 11:53:38;;;;;;;14.60;9.00;;;;;;;12.10;50.74;98885.70;105498;1253;61178;-24
2023/03/20 11:56:13;;;;;;;15.60;8.60;;;;;;;12.19;50.73;98886.27;103974;1259;2028553;-25
2023/03/20 11:58:56;;;;;;;13.40;8.40;;;;;;;11.89;50.44;98883.67;105258;1253;75400;-23